createdAt,value
2018-03-24T00:02:23.859Z,44.33
2018-03-24T00:04:51.833Z,37.63
2018-03-24T00:07:19.902Z,37.43
2018-03-24T00:09:48.277Z,35.63
2018-03-24T00:12:16.533Z,33.70
2018-03-24T00:14:44.557Z,31.30
2018-03-24T00:17:13.406Z,39.80
2018-03-24T00:19:41.483Z,36.53
2018-03-24T00:22:09.358Z,41.93
2018-03-24T00:24:37.314Z,41.13
2018-03-24T00:27:05.519Z,45.83
2018-03-24T00:29:33.362Z,37.80
2018-03-24T00:32:01.429Z,40.37
2018-03-24T00:34:29.189Z,39.40
2018-03-24T00:36:57.259Z,40.07
2018-03-24T00:39:25.127Z,43.13
2018-03-24T00:41:53.094Z,43.33
2018-03-24T00:44:21.055Z,39.90
2018-03-24T00:46:48.925Z,38.23
2018-03-24T00:49:17.000Z,41.47
2018-03-24T00:51:45.097Z,40.07
2018-03-24T00:54:13.147Z,42.20
2018-03-24T00:56:41.214Z,42.17
2018-03-24T00:59:09.193Z,40.97
2018-03-24T01:01:38.477Z,47.57
2018-03-24T01:04:06.703Z,49.17
2018-03-24T01:06:35.744Z,50.83
2018-03-24T01:09:04.128Z,55.63
2018-03-24T01:11:32.146Z,56.17
2018-03-24T01:14:00.059Z,60.97
2018-03-24T01:16:27.928Z,64.47
2018-03-24T01:18:55.893Z,65.50
2018-03-24T01:21:23.791Z,72.10
2018-03-24T01:23:51.837Z,68.00
2018-03-24T01:26:20.774Z,79.33
2018-03-24T01:28:49.797Z,64.90
2018-03-24T01:31:17.793Z,65.80
2018-03-24T01:33:45.653Z,71.90
2018-03-24T01:36:13.735Z,83.17
2018-03-24T01:38:41.728Z,69.63
2018-03-24T01:41:10.698Z,70.27
2018-03-24T01:43:38.654Z,79.17
2018-03-24T01:46:06.624Z,77.27
2018-03-24T01:48:34.590Z,78.80
2018-03-24T01:51:02.658Z,75.93
2018-03-24T01:53:42.504Z,73.03
2018-03-24T01:56:10.610Z,77.47
2018-03-24T01:58:38.443Z,72.17
2018-03-24T02:01:06.339Z,61.00
2018-03-24T02:03:34.284Z,66.90
2018-03-24T02:06:02.045Z,73.73
2018-03-24T02:08:30.008Z,62.10
2018-03-24T02:10:57.978Z,62.50
2018-03-24T02:13:25.979Z,62.93
2018-03-24T02:15:54.938Z,64.77
2018-03-24T02:18:22.708Z,70.77
2018-03-24T02:20:56.757Z,72.03
2018-03-24T02:23:25.297Z,66.47
2018-03-24T02:25:53.263Z,68.97
2018-03-24T02:28:21.262Z,72.10
2018-03-24T02:30:49.333Z,71.40
2018-03-24T02:33:17.584Z,63.23
2018-03-24T02:35:45.559Z,69.77
2018-03-24T02:38:13.635Z,62.07
2018-03-24T02:40:41.900Z,69.70
2018-03-24T02:43:09.982Z,69.00
2018-03-24T02:45:37.843Z,58.90
2018-03-24T02:48:05.706Z,57.87
2018-03-24T02:50:33.563Z,58.30
2018-03-24T02:53:01.534Z,62.20
2018-03-24T02:55:29.603Z,65.87
2018-03-24T02:57:57.371Z,63.87
2018-03-24T03:00:25.361Z,57.93
2018-03-24T03:02:53.720Z,65.53
2018-03-24T03:05:22.408Z,63.93
2018-03-24T03:07:50.263Z,54.43
2018-03-24T03:10:18.332Z,67.30
2018-03-24T03:12:46.539Z,79.93
2018-03-24T03:15:14.672Z,75.17
2018-03-24T03:17:42.753Z,90.50
2018-03-24T03:20:10.858Z,80.50
2018-03-24T03:22:39.813Z,87.23
2018-03-24T03:25:07.784Z,88.70
2018-03-24T03:27:35.756Z,92.43
2018-03-24T03:30:04.129Z,88.17
2018-03-24T03:32:31.993Z,85.87
2018-03-24T03:35:00.170Z,88.10
2018-03-24T03:37:28.274Z,91.07
2018-03-24T03:39:56.417Z,93.93
2018-03-24T03:42:24.489Z,95.47
2018-03-24T03:44:52.373Z,98.77
2018-03-24T03:47:20.444Z,102.47
2018-03-24T03:49:48.699Z,103.30
2018-03-24T03:52:16.573Z,111.53
2018-03-24T03:54:44.534Z,103.27
2018-03-24T03:57:12.293Z,94.03
2018-03-24T03:59:40.264Z,109.80
2018-03-24T04:02:08.433Z,106.33
2018-03-24T04:04:36.318Z,95.03
2018-03-24T04:07:05.400Z,93.30
2018-03-24T04:09:33.263Z,98.10
2018-03-24T04:12:01.574Z,103.93
2018-03-24T04:14:29.513Z,96.17
2018-03-24T04:16:57.784Z,94.27
2018-03-24T04:19:25.771Z,90.50
2018-03-24T04:21:53.718Z,90.50
2018-03-24T04:24:21.488Z,94.63
2018-03-24T04:26:49.753Z,105.20
2018-03-24T04:29:17.827Z,92.17
2018-03-24T04:31:45.898Z,90.57
2018-03-24T04:34:13.874Z,94.93
2018-03-24T04:36:41.934Z,91.27
2018-03-24T04:39:10.014Z,94.37
2018-03-24T04:41:37.985Z,91.10
2018-03-24T04:44:06.158Z,94.17
2018-03-24T04:46:34.323Z,89.77
2018-03-24T04:49:02.292Z,90.27
2018-03-24T04:51:30.271Z,91.63
2018-03-24T04:53:58.359Z,83.53
2018-03-24T04:56:26.223Z,88.43
2018-03-24T04:58:54.197Z,92.57
2018-03-24T05:01:22.444Z,89.50
2018-03-24T05:03:50.434Z,92.80
2018-03-24T05:06:18.398Z,80.93
2018-03-24T05:08:46.353Z,81.23
2018-03-24T05:11:14.204Z,81.57
2018-03-24T05:13:42.288Z,80.13
2018-03-24T05:16:10.480Z,81.77
2018-03-24T05:18:38.628Z,82.30
2018-03-24T05:21:06.804Z,81.37
2018-03-24T05:23:34.774Z,83.13
2018-03-24T05:26:02.983Z,73.80
2018-03-24T05:28:31.838Z,88.87
2018-03-24T05:30:59.846Z,81.07
2018-03-24T05:33:27.673Z,69.90
2018-03-24T05:35:55.643Z,75.03
2018-03-24T05:38:23.813Z,79.30
2018-03-24T05:40:51.887Z,73.70
2018-03-24T05:43:20.062Z,71.20
2018-03-24T05:45:48.036Z,74.30
2018-03-24T05:48:16.013Z,78.33
2018-03-24T05:50:44.253Z,79.87
2018-03-24T05:53:11.938Z,70.20
2018-03-24T05:55:39.903Z,78.63
2018-03-24T05:58:08.172Z,79.43
2018-03-24T06:00:36.452Z,82.40
2018-03-24T06:03:04.423Z,90.27
2018-03-24T06:05:32.183Z,75.77
2018-03-24T06:08:00.150Z,66.73
2018-03-24T06:10:28.328Z,66.37
2018-03-24T06:12:56.628Z,67.67
2018-03-24T06:15:24.588Z,68.30
2018-03-24T06:17:52.537Z,71.63
2018-03-24T06:20:20.508Z,76.23
2018-03-24T06:22:48.589Z,69.70
2018-03-24T06:25:16.653Z,71.77
2018-03-24T06:27:44.409Z,75.67
2018-03-24T06:30:13.841Z,72.23
2018-03-24T06:32:42.091Z,75.30
2018-03-24T06:35:09.956Z,70.13
2018-03-24T06:37:38.034Z,64.33
2018-03-24T06:40:06.337Z,71.17
2018-03-24T06:42:35.091Z,67.80
2018-03-24T06:45:03.054Z,64.27
2018-03-24T06:47:31.023Z,60.70
2018-03-24T06:49:59.309Z,63.33
2018-03-24T06:52:27.226Z,64.17
2018-03-24T06:54:55.037Z,59.90
2018-03-24T06:57:23.207Z,76.03
2018-03-24T06:59:51.092Z,67.03
2018-03-24T07:02:18.964Z,69.97
2018-03-24T07:04:46.833Z,59.20
2018-03-24T07:07:15.392Z,62.70
2018-03-24T07:09:43.253Z,69.07
2018-03-24T07:12:11.342Z,65.93
2018-03-24T07:14:39.089Z,54.33
2018-03-24T07:17:07.165Z,58.70
2018-03-24T07:19:36.047Z,51.10
2018-03-24T07:22:04.329Z,66.30
2018-03-24T07:24:31.979Z,56.63
2018-03-24T07:27:00.082Z,60.63
2018-03-24T07:29:28.123Z,55.97
2018-03-24T07:31:56.094Z,62.00
2018-03-24T07:34:23.958Z,59.23
2018-03-24T07:36:51.958Z,60.20
2018-03-24T07:39:19.806Z,56.97
2018-03-24T07:41:47.662Z,56.90
2018-03-24T07:44:15.557Z,61.30
2018-03-24T07:46:43.504Z,65.10
2018-03-24T07:49:11.278Z,67.23
2018-03-24T07:51:39.639Z,60.38
2018-03-24T07:54:08.386Z,64.93
2018-03-24T07:56:36.387Z,68.20
2018-03-24T07:59:04.266Z,66.07
2018-03-24T08:01:32.335Z,60.00
2018-03-24T08:04:00.408Z,74.23
2018-03-24T08:06:28.098Z,76.83
2018-03-24T08:08:56.038Z,80.57
2018-03-24T08:11:24.108Z,70.17
2018-03-24T08:13:51.978Z,61.80
2018-03-24T08:16:19.991Z,71.17
2018-03-24T08:18:48.828Z,72.20
2018-03-24T08:21:16.798Z,76.27
2018-03-24T08:23:44.564Z,69.67
2018-03-24T08:26:12.428Z,72.50
2018-03-24T08:28:40.318Z,69.43
2018-03-24T08:31:08.261Z,77.10
2018-03-24T08:33:35.928Z,68.73
2018-03-24T08:36:03.788Z,65.30
2018-03-24T08:38:31.863Z,72.97
2018-03-24T08:40:59.558Z,66.10
2018-03-24T08:43:28.528Z,71.00
2018-03-24T08:45:56.162Z,70.37
2018-03-24T08:48:24.144Z,62.07
2018-03-24T08:50:52.318Z,68.37
2018-03-24T08:53:20.379Z,67.33
2018-03-24T08:55:48.459Z,61.13
2018-03-24T08:58:16.323Z,59.17
2018-03-24T09:00:44.603Z,62.47
2018-03-24T09:03:12.568Z,61.80
2018-03-24T09:05:40.548Z,62.93
2018-03-24T09:08:08.295Z,59.77
2018-03-24T09:10:36.084Z,64.10
2018-03-24T09:13:04.239Z,58.83
2018-03-24T09:15:32.119Z,63.00
2018-03-24T09:17:59.998Z,59.87
2018-03-24T09:20:27.843Z,59.17
2018-03-24T09:22:56.035Z,50.67
2018-03-24T09:25:23.908Z,49.80
2018-03-24T09:27:52.778Z,61.27
2018-03-24T09:30:20.740Z,50.33
2018-03-24T09:32:48.938Z,54.07
2018-03-24T09:35:16.783Z,59.88
2018-03-24T09:37:45.159Z,53.93
2018-03-24T09:40:13.122Z,57.37
2018-03-24T09:42:42.243Z,64.10
2018-03-24T09:45:10.289Z,54.17
2018-03-24T09:47:38.167Z,56.77
2018-03-24T09:50:06.034Z,60.60
2018-03-24T09:52:33.991Z,51.80
2018-03-24T09:55:02.283Z,54.67
2018-03-24T09:57:30.256Z,53.87
2018-03-24T09:59:58.006Z,55.27
2018-03-24T10:02:25.976Z,58.83
2018-03-24T10:04:54.959Z,58.43
2018-03-24T10:07:22.831Z,48.70
2018-03-24T10:09:50.905Z,51.63
2018-03-24T10:12:19.386Z,48.37
2018-03-24T10:14:47.353Z,47.30
2018-03-24T10:17:15.317Z,48.70
2018-03-24T10:19:43.209Z,47.90
2018-03-24T10:25:16.414Z,50.63
2018-03-24T10:27:44.625Z,48.77
2018-03-24T10:30:13.274Z,52.57
2018-03-24T10:32:41.915Z,48.30
2018-03-24T10:35:09.908Z,54.80
2018-03-24T10:37:43.504Z,49.90
2018-03-24T10:40:11.394Z,48.20
2018-03-24T10:42:39.166Z,50.47
2018-03-24T10:45:07.224Z,52.40
2018-03-24T10:47:35.176Z,47.77
2018-03-24T10:50:03.252Z,53.30
2018-03-24T10:52:31.374Z,53.53
2018-03-24T10:55:00.216Z,49.93
2018-03-24T10:57:28.290Z,46.73
2018-03-24T10:59:56.378Z,46.03
2018-03-24T11:02:24.267Z,47.73
2018-03-24T11:04:52.799Z,41.00
2018-03-24T11:07:20.896Z,50.40
2018-03-24T11:09:48.744Z,47.10
2018-03-24T11:12:16.529Z,46.80
2018-03-24T11:14:44.424Z,44.90
2018-03-24T11:17:13.060Z,43.00
2018-03-24T11:19:40.918Z,42.63
2018-03-24T11:22:09.093Z,47.72
2018-03-24T11:24:37.376Z,41.77
2018-03-24T11:27:05.331Z,41.10
2018-03-24T11:29:33.336Z,38.80
2018-03-24T11:32:01.077Z,39.87
2018-03-24T11:34:28.935Z,37.87
2018-03-24T11:36:56.905Z,40.00
2018-03-24T11:39:24.674Z,44.08
2018-03-24T11:41:52.433Z,36.53
2018-03-24T11:44:20.051Z,35.87
2018-03-24T11:46:47.864Z,34.70
2018-03-24T11:49:15.624Z,35.73
2018-03-24T11:51:43.709Z,37.20
2018-03-24T11:54:11.794Z,33.67
2018-03-24T11:56:39.628Z,32.20
2018-03-24T11:59:08.228Z,34.67
2018-03-24T12:01:36.084Z,32.57
2018-03-24T12:04:04.085Z,33.37
2018-03-24T12:06:32.743Z,31.73
2018-03-24T12:09:00.708Z,33.97
2018-03-24T12:11:28.459Z,31.73
2018-03-24T12:13:57.254Z,30.57
2018-03-24T12:16:25.255Z,34.07
2018-03-24T12:18:53.329Z,31.87
2018-03-24T12:21:21.466Z,19.03
2018-03-24T12:23:49.640Z,17.53
2018-03-24T12:26:17.628Z,19.90
2018-03-24T12:28:45.741Z,21.60
2018-03-24T12:31:13.556Z,22.77
2018-03-24T12:33:41.516Z,23.30
2018-03-24T12:36:09.717Z,23.90
2018-03-24T12:38:37.556Z,25.67
2018-03-24T12:41:05.324Z,27.60
2018-03-24T12:43:33.388Z,31.23
2018-03-24T12:46:01.366Z,31.83
2018-03-24T12:48:29.251Z,32.27
2018-03-24T12:50:57.432Z,35.40
2018-03-24T12:53:25.483Z,26.13
2018-03-24T12:55:53.243Z,27.97
2018-03-24T12:58:21.021Z,30.67
2018-03-24T13:00:49.270Z,29.10
2018-03-24T13:03:17.175Z,26.37
2018-03-24T13:05:45.108Z,29.43
2018-03-24T13:08:13.080Z,28.73
2018-03-24T13:10:41.353Z,27.23
2018-03-24T13:13:10.162Z,25.43
2018-03-24T13:15:38.212Z,24.73
2018-03-24T13:18:06.178Z,27.03
2018-03-24T13:20:34.369Z,27.73
2018-03-24T13:23:02.536Z,27.77
2018-03-24T13:25:31.437Z,26.93
2018-03-24T13:27:59.388Z,25.17
2018-03-24T13:30:27.672Z,23.80
2018-03-24T13:32:55.738Z,29.47
2018-03-24T13:35:23.711Z,24.20
2018-03-24T13:37:51.782Z,25.10
2018-03-24T13:40:19.840Z,26.17
2018-03-24T13:42:47.835Z,25.57
2018-03-24T13:45:15.675Z,24.53
2018-03-24T13:47:43.645Z,27.60
2018-03-24T13:50:11.515Z,34.47
2018-03-24T13:52:39.480Z,36.13
2018-03-24T13:55:07.580Z,37.97
2018-03-24T13:57:35.421Z,37.40
2018-03-24T14:00:04.263Z,38.97
2018-03-24T14:02:33.304Z,34.57
2018-03-24T14:05:01.302Z,35.10
2018-03-24T14:07:29.338Z,33.63
2018-03-24T14:09:57.512Z,35.13
2018-03-24T14:12:25.610Z,33.20
2018-03-24T14:14:53.560Z,35.83
2018-03-24T14:17:21.808Z,34.67
2018-03-24T14:19:49.605Z,34.53
2018-03-24T14:22:17.595Z,32.37
2018-03-24T14:24:45.339Z,31.40
2018-03-24T14:27:13.410Z,31.77
2018-03-24T14:29:41.155Z,32.13
2018-03-24T14:32:09.543Z,35.50
2018-03-24T14:34:37.713Z,35.83
2018-03-24T14:37:05.581Z,34.30
2018-03-24T14:39:33.446Z,33.90
2018-03-24T14:42:01.847Z,36.63
2018-03-24T14:44:29.722Z,35.70
2018-03-24T14:46:57.662Z,35.73
2018-03-24T14:49:25.830Z,34.90
2018-03-24T14:51:53.592Z,40.63
2018-03-24T14:54:21.362Z,35.33
2018-03-24T14:56:49.331Z,37.27
2018-03-24T14:59:17.203Z,37.30
2018-03-24T15:01:45.161Z,39.90
2018-03-24T15:04:13.146Z,40.47
2018-03-24T15:06:41.001Z,37.60
2018-03-24T15:09:08.962Z,37.73
2018-03-24T15:11:36.933Z,35.43
2018-03-24T15:14:05.030Z,43.07
2018-03-24T15:16:33.263Z,39.20
2018-03-24T15:19:01.260Z,37.20
2018-03-24T15:21:30.242Z,42.10
2018-03-24T15:23:58.725Z,40.50
2018-03-24T15:26:26.732Z,43.17
2018-03-24T15:29:07.464Z,42.80
2018-03-24T15:31:47.309Z,41.80
2018-03-24T15:34:26.788Z,42.67
2018-03-24T15:36:55.529Z,40.90
2018-03-24T15:39:23.602Z,41.00
2018-03-24T15:41:51.572Z,40.10
2018-03-24T15:44:19.538Z,38.53
2018-03-24T15:46:47.551Z,40.47
2018-03-24T15:49:16.092Z,40.83
2018-03-24T15:51:44.056Z,41.40
2018-03-24T15:54:11.945Z,43.40
2018-03-24T15:56:40.838Z,45.10
2018-03-24T15:59:08.919Z,40.57
2018-03-24T16:01:37.161Z,38.97
2018-03-24T16:04:05.372Z,39.43
2018-03-24T16:06:34.429Z,42.07
2018-03-24T16:09:03.322Z,53.53
2018-03-24T16:11:31.708Z,44.80
2018-03-24T16:13:59.574Z,62.63
2018-03-24T16:16:27.432Z,67.00
2018-03-24T16:18:55.502Z,56.60
2018-03-24T16:21:23.516Z,63.60
2018-03-24T16:23:52.173Z,67.87
2018-03-24T16:26:20.329Z,67.20
2018-03-24T16:28:48.320Z,64.30
2018-03-24T16:31:16.381Z,64.77
2018-03-24T16:33:44.337Z,71.27
2018-03-24T16:36:12.664Z,69.70
2018-03-24T16:38:41.196Z,76.80
2018-03-24T16:41:08.964Z,75.13
2018-03-24T16:43:36.819Z,70.40
2018-03-24T16:46:04.705Z,71.23
2018-03-24T16:48:32.676Z,61.10
2018-03-24T16:51:00.638Z,61.93
2018-03-24T16:53:28.605Z,60.37
2018-03-24T16:55:56.500Z,65.93
2018-03-24T16:58:25.246Z,57.57
2018-03-24T17:00:53.530Z,67.23
2018-03-24T17:03:21.407Z,67.83
2018-03-24T17:05:49.370Z,71.37
2018-03-24T17:08:17.354Z,69.47
2018-03-24T17:10:45.348Z,76.27
2018-03-24T17:13:13.922Z,74.33
2018-03-24T17:15:42.476Z,73.87
2018-03-24T17:18:10.459Z,79.67
2018-03-24T17:20:38.740Z,88.70
2018-03-24T17:23:06.574Z,94.33
2018-03-24T17:25:34.750Z,94.87
2018-03-24T17:28:02.707Z,99.17
2018-03-24T17:30:30.784Z,95.13
2018-03-24T17:32:58.689Z,85.80
2018-03-24T17:35:27.568Z,86.23
2018-03-24T17:37:57.052Z,76.97
2018-03-24T17:40:25.115Z,84.43
2018-03-24T17:42:52.786Z,88.77
2018-03-24T17:45:21.159Z,89.07
2018-03-24T17:47:49.131Z,90.40
2018-03-24T17:50:17.204Z,88.47
2018-03-24T17:52:45.067Z,95.53
2018-03-24T17:55:12.777Z,90.77
2018-03-24T17:57:41.408Z,94.03
2018-03-24T18:00:09.279Z,104.60
2018-03-24T18:02:37.038Z,100.33
2018-03-24T18:05:04.928Z,104.37
2018-03-24T18:07:32.693Z,109.33
2018-03-24T18:10:00.443Z,144.67
2018-03-24T18:12:28.401Z,105.50
2018-03-24T18:14:56.163Z,244.53
2018-03-24T18:17:24.156Z,168.00
2018-03-24T18:19:52.444Z,146.20
2018-03-24T18:22:22.467Z,144.13
2018-03-24T18:24:51.078Z,164.53
2018-03-24T18:27:23.428Z,148.50
2018-03-24T18:29:58.177Z,197.77
2018-03-24T18:32:28.510Z,157.93
2018-03-24T18:34:57.279Z,148.33
2018-03-24T18:37:27.562Z,169.27
2018-03-24T18:39:57.783Z,223.43
2018-03-24T18:42:26.555Z,231.43
2018-03-24T18:44:54.338Z,177.27
2018-03-24T18:47:22.183Z,165.20
2018-03-24T18:49:49.949Z,171.23
2018-03-24T18:52:17.758Z,161.63
2018-03-24T18:54:46.290Z,126.97
2018-03-24T18:57:13.969Z,122.17
2018-03-24T18:59:41.726Z,117.47
2018-03-24T19:02:09.484Z,116.83
2018-03-24T19:04:37.249Z,119.30
2018-03-24T19:07:04.928Z,113.70
2018-03-24T19:09:32.774Z,106.70
2018-03-24T19:12:00.440Z,106.57
2018-03-24T19:14:28.303Z,102.63
2018-03-24T19:16:56.274Z,98.07
2018-03-24T19:19:25.058Z,93.90
2018-03-24T19:21:52.830Z,87.23
2018-03-24T19:24:20.605Z,83.10
2018-03-24T19:26:48.291Z,86.37
2018-03-24T19:29:16.836Z,88.63
2018-03-24T19:31:44.594Z,79.67
2018-03-24T19:34:12.471Z,65.77
2018-03-24T19:36:40.329Z,74.37
2018-03-24T19:39:08.333Z,71.80
2018-03-24T19:41:37.090Z,68.97
2018-03-24T19:44:04.954Z,61.60
2018-03-24T19:46:32.713Z,73.80
2018-03-24T19:49:00.486Z,71.97
2018-03-24T19:51:28.334Z,64.17
2018-03-24T19:53:56.333Z,68.27
2018-03-24T19:56:24.179Z,65.00
2018-03-24T19:58:52.701Z,68.17
2018-03-24T20:01:21.344Z,63.77
2018-03-24T20:03:49.117Z,64.13
2018-03-24T20:06:16.880Z,66.00
2018-03-24T20:08:44.650Z,59.33
2018-03-24T20:11:12.733Z,65.80
2018-03-24T20:13:41.494Z,60.47
2018-03-24T20:16:09.773Z,59.37
2018-03-24T20:18:37.778Z,57.50
2018-03-24T20:21:06.323Z,50.70
2018-03-24T20:23:34.492Z,67.80
2018-03-24T20:26:02.593Z,64.93
2018-03-24T20:28:30.746Z,62.90
2018-03-24T20:30:59.089Z,57.03
2018-03-24T20:33:26.795Z,60.10
2018-03-24T20:35:54.649Z,67.50
2018-03-24T20:38:25.922Z,76.73
2018-03-24T20:40:58.908Z,81.40
2018-03-24T20:43:27.495Z,90.20
2018-03-24T20:45:55.449Z,80.30
2018-03-24T20:48:23.185Z,89.43
2018-03-24T20:50:51.267Z,83.97
2018-03-24T20:53:19.043Z,97.90
2018-03-24T20:55:53.839Z,88.80
2018-03-24T20:58:21.733Z,98.37
2018-03-24T21:00:49.804Z,107.83
2018-03-24T21:03:17.777Z,86.90
2018-03-24T21:05:45.565Z,119.30
2018-03-24T21:08:14.319Z,98.80
2018-03-24T21:10:42.389Z,92.57
2018-03-24T21:13:10.186Z,104.87
2018-03-24T21:15:40.516Z,119.47
2018-03-24T21:18:09.292Z,128.70
2018-03-24T21:20:37.051Z,127.67
2018-03-24T21:23:05.203Z,127.43
2018-03-24T21:25:33.168Z,126.53
2018-03-24T21:28:00.934Z,116.67
2018-03-24T21:30:28.802Z,114.23
2018-03-24T21:32:56.582Z,99.93
2018-03-24T21:35:24.453Z,89.47
2018-03-24T21:37:52.298Z,103.97
2018-03-24T21:40:20.469Z,110.20
2018-03-24T21:42:48.662Z,128.27
2018-03-24T21:45:16.533Z,116.87
2018-03-24T21:47:44.474Z,119.00
2018-03-24T21:50:12.649Z,120.70
2018-03-24T21:52:40.532Z,119.73
2018-03-24T21:55:08.623Z,113.33
2018-03-24T21:57:37.373Z,117.17
2018-03-24T22:00:05.468Z,106.00
2018-03-24T22:02:33.822Z,120.07
2018-03-24T22:05:01.788Z,107.93
2018-03-24T22:07:30.169Z,122.17
2018-03-24T22:09:58.239Z,101.83
2018-03-24T22:12:26.008Z,101.90
2018-03-24T22:14:53.973Z,102.17
2018-03-24T22:17:21.942Z,111.70
2018-03-24T22:19:50.013Z,100.27
2018-03-24T22:22:17.968Z,109.03
2018-03-24T22:24:45.958Z,113.07
2018-03-24T22:27:14.126Z,123.07
2018-03-24T22:29:42.094Z,119.03
2018-03-24T22:32:09.961Z,118.93
2018-03-24T22:34:38.036Z,121.83
2018-03-24T22:37:07.043Z,113.13
2018-03-24T22:39:34.912Z,113.23
2018-03-24T22:42:02.961Z,93.43
2018-03-24T22:44:30.724Z,92.23
2018-03-24T22:46:58.695Z,95.53
2018-03-24T22:49:26.608Z,100.13
2018-03-24T22:51:55.348Z,94.60
2018-03-24T22:54:23.314Z,88.03
2018-03-24T22:56:51.198Z,92.03
2018-03-24T22:59:19.166Z,90.33
2018-03-24T23:01:47.218Z,84.60
2018-03-24T23:04:15.493Z,87.50
2018-03-24T23:06:43.664Z,73.63
2018-03-24T23:09:11.653Z,76.20
2018-03-24T23:11:39.703Z,76.33
2018-03-24T23:14:07.676Z,71.93
2018-03-24T23:16:35.762Z,82.00
2018-03-24T23:19:03.849Z,77.40
2018-03-24T23:21:32.716Z,74.63
2018-03-24T23:24:00.596Z,78.83
2018-03-24T23:26:28.458Z,76.43
2018-03-24T23:28:56.408Z,89.30
2018-03-24T23:31:24.376Z,99.87
2018-03-24T23:33:52.354Z,81.20
2018-03-24T23:36:20.413Z,76.23
2018-03-24T23:38:48.382Z,75.87
2018-03-24T23:41:16.663Z,73.73
2018-03-24T23:43:44.839Z,77.73
2018-03-24T23:46:12.801Z,61.97
2018-03-24T23:48:40.689Z,66.30
2018-03-24T23:51:08.636Z,69.60
2018-03-24T23:53:36.610Z,76.30
2018-03-24T23:56:04.808Z,72.43
2018-03-24T23:58:32.876Z,64.67
